»·PEaware :: WAT169 KBUR-KLAS

WAT169 :: KBUR-KLAS

FLIGHT INFORMATION

Flight Status: Arrived
Operator:
Walker Air Transport
More flights by this operator :: More flights under this callsign
Pilot: Marty P. (27464)
Aircraft: BOEING 727-200
(B722)
More flights by this aircraft type
Origin: KBUR Bob Hope-Burbank
United States
Destination: KLAS Harry Reid Intl
United States
More flights between these airports :: More routes between these airports
Route: VNY3 DAG LARKK1
File this flight plan on PilotEdge
Remarks:
Altitude:
(Current/Filed)
31,000ft
Speed:
(Current/Filed)
530kts
Departed: 26-Nov-21 12:49 PM
Arrived: 26-Nov-21 01:37 PM
Distance/Time
Traveled:
194nm/0:48
Distance/Time
To Go:
Arrived

Flight Plot

Page will automatically refresh every two minutes.

Flight plan parsing failed; only flown route is shown


Map Options




Map Legend


Flown Route
Filed Route
Departure Airport
Arrival Airport
Navaid (VOR, NDB)
Fix

Horizontal Profiles

Position Reports

Time Latitude Longitude Heading Altitude Ground
Speed
26-Nov-21 12:21 34.196787 -118.351080 180 703ft 0kts
26-Nov-21 12:22 34.196787 -118.351080 180 703ft 0kts
26-Nov-21 12:23 34.196787 -118.351080 180 703ft 0kts
26-Nov-21 12:24 34.196787 -118.351080 180 703ft 0kts
26-Nov-21 12:25 34.196787 -118.351080 180 703ft 0kts
26-Nov-21 12:26 34.196787 -118.351080 180 703ft 0kts
26-Nov-21 12:27 34.196787 -118.351080 180 703ft 0kts
26-Nov-21 12:28 34.196787 -118.351080 180 703ft 0kts
26-Nov-21 12:29 34.196787 -118.351080 180 703ft 0kts
26-Nov-21 12:30 34.196787 -118.351080 180 703ft 0kts
26-Nov-21 12:31 34.197145 -118.350786 251 702ft 2kts
26-Nov-21 12:32 34.197165 -118.350565 271 702ft 0kts
26-Nov-21 12:33 34.197165 -118.350565 271 702ft 0kts
26-Nov-21 12:34 34.197166 -118.350753 269 702ft 6kts
26-Nov-21 12:35 34.197198 -118.353450 270 707ft 0kts
26-Nov-21 12:36 34.197198 -118.353450 270 707ft 0kts
26-Nov-21 12:37 34.197198 -118.353450 270 707ft 0kts
26-Nov-21 12:38 34.197198 -118.353450 270 707ft 0kts
26-Nov-21 12:39 34.197198 -118.353450 270 707ft 0kts
26-Nov-21 12:40 34.197198 -118.353450 270 707ft 0kts
26-Nov-21 12:41 34.197198 -118.353450 270 707ft 0kts
26-Nov-21 12:42 34.197198 -118.353450 270 707ft 0kts
26-Nov-21 12:43 34.197215 -118.353640 282 707ft 6kts
26-Nov-21 12:44 34.200852 -118.355949 347 722ft 17kts
26-Nov-21 12:45 34.204034 -118.356790 346 735ft 6kts
26-Nov-21 12:46 34.208649 -118.358134 345 760ft 25kts
26-Nov-21 12:47 34.211430 -118.360200 175 773ft 14kts
26-Nov-21 12:48 34.176204 -118.353036 187 1334ft 231kts
26-Nov-21 12:49 34.121679 -118.408407 238 4805ft 305kts
26-Nov-21 12:50 34.148895 -118.478946 345 9242ft 261kts
26-Nov-21 12:51 34.223269 -118.496482 350 11601ft 304kts
26-Nov-21 12:52 34.306893 -118.475072 22 14329ft 325kts
26-Nov-21 12:53 34.392861 -118.424907 34 15009ft 352kts
26-Nov-21 12:54 34.463961 -118.335404 51 15505ft 382kts
26-Nov-21 12:55 34.526194 -118.233206 52 18270ft 380kts
26-Nov-21 12:56 34.591033 -118.128354 51 20302ft 397kts
26-Nov-21 12:57 34.658786 -118.019961 51 22607ft 413kts
26-Nov-21 12:58 34.686056 -117.881034 104 23203ft 484kts
26-Nov-21 12:59 34.666376 -117.723055 72 26329ft 461kts
26-Nov-21 13:00 34.705718 -117.578276 68 28851ft 456kts
26-Nov-21 13:01 34.746775 -117.429589 68 30401ft 470kts
26-Nov-21 13:02 34.786620 -117.275495 70 31234ft 496kts
26-Nov-21 13:03 34.827789 -117.108500 70 31282ft 531kts
26-Nov-21 13:04 34.870977 -116.937205 70 31308ft 526kts
26-Nov-21 13:05 34.914210 -116.767938 70 31312ft 524kts
26-Nov-21 13:06 34.956556 -116.601110 67 30495ft 504kts
26-Nov-21 13:07 35.051909 -116.491297 34 25782ft 457kts
26-Nov-21 13:08 35.094852 -116.371614 46 23544ft 344kts
26-Nov-21 13:09 35.149150 -116.297090 44 23578ft 280kts
26-Nov-21 13:10 35.204225 -116.245685 51 24201ft 234kts
26-Nov-21 13:11 35.197555 -116.148105 102 21174ft 362kts
26-Nov-21 13:12 35.172891 -116.031114 102 20907ft 340kts
26-Nov-21 13:13 35.161747 -115.978741 102 20793ft 321kts
26-Nov-21 13:14 35.152031 -115.877460 57 19624ft 294kts
26-Nov-21 13:15 35.221436 -115.869191 325 17972ft 292kts
26-Nov-21 13:16 35.268931 -115.915598 322 16975ft 288kts
26-Nov-21 13:17 35.330275 -115.977001 322 15645ft 283kts
26-Nov-21 13:18 35.391429 -116.029352 358 15002ft 245kts
26-Nov-21 13:19 35.432688 -115.979104 61 15035ft 233kts
26-Nov-21 13:20 35.458046 -115.918788 61 15037ft 285kts
26-Nov-21 13:21 35.495670 -115.830546 56 15040ft 339kts
26-Nov-21 13:22 35.554574 -115.728013 54 15057ft 397kts
26-Nov-21 13:23 35.620127 -115.606889 56 15063ft 451kts
26-Nov-21 13:24 35.688523 -115.468644 58 15058ft 484kts
26-Nov-21 13:25 35.753150 -115.336948 57 15039ft 412kts
26-Nov-21 13:26 35.804724 -115.235951 56 14462ft 283kts
26-Nov-21 13:27 35.842165 -115.165046 56 12272ft 234kts
26-Nov-21 13:28 35.877778 -115.097061 57 9173ft 239kts
26-Nov-21 13:29 35.913096 -115.026978 58 8031ft 238kts
26-Nov-21 13:30 35.946712 -114.960147 57 7036ft 221kts
26-Nov-21 13:31 35.995870 -114.925479 2 5140ft 217kts
26-Nov-21 13:32 36.059088 -114.934572 322 5015ft 271kts
26-Nov-21 13:33 36.074964 -115.009344 258 4457ft 209kts
26-Nov-21 13:34 36.073632 -115.066610 269 3205ft 140kts
26-Nov-21 13:35 36.073584 -115.115930 270 2217ft 139kts
26-Nov-21 13:36 36.074609 -115.145659 300 2106ft 19kts
26-Nov-21 13:37 36.074831 -115.146109 306 2107ft 8kts
26-Nov-21 13:38 36.078604 -115.147210 354 2105ft 0kts
26-Nov-21 13:39 36.080981 -115.147752 65 2101ft 3kts
26-Nov-21 13:40 36.080997 -115.147710 65 2100ft 0kts
26-Nov-21 13:41 36.080997 -115.147710 65 2100ft 0kts
26-Nov-21 13:42 36.080997 -115.147710 65 2100ft 0kts
26-Nov-21 13:43 36.080997 -115.147710 65 2100ft 0kts
26-Nov-21 13:44 36.080997 -115.147710 65 2100ft 0kts
26-Nov-21 13:45 36.080997 -115.147710 65 2100ft 0kts
26-Nov-21 13:46 36.080997 -115.147710 65 2100ft 0kts
26-Nov-21 13:47 36.080997 -115.147710 65 2100ft 0kts
26-Nov-21 13:48 36.080997 -115.147710 65 2100ft 0kts
26-Nov-21 13:49 36.080997 -115.147710 65 2100ft 0kts

Navigation Log

Ident Type
Flight plan parsing failed, navigation log unavailable